Time;durP1;ratioP1;P1;durP2;ratioP2;P2;SDS_P1;SDS_P2;PMS_P1;PMS_P2;Temp;Humidity;BMP_temperature;BMP_pressure;BME280_temperature;BME280_humidity;BME280_pressure;Samples;Min_cycle;Max_cycle;Signal;HPM_P1;HPM_P2
2021/04/16 00:00:12;;;;;;;3.92;3.22;;;4.80;61.60;;;;;;5094679;28;20460;-36
2021/04/16 00:02:38;;;;;;;4.90;3.95;;;4.80;61.70;;;;;;5094326;28;20510;-36
2021/04/16 00:05:05;;;;;;;9.05;3.75;;;4.80;61.80;;;;;;5094493;28;20059;-36
2021/04/16 00:07:31;;;;;;;5.90;3.38;;;4.80;62.10;;;;;;5093683;28;20028;-36
2021/04/16 00:09:58;;;;;;;4.43;3.03;;;4.80;62.00;;;;;;5094618;28;20024;-36
2021/04/16 00:12:23;;;;;;;5.50;3.35;;;4.80;62.00;;;;;;5094306;28;20024;-36
2021/04/16 00:14:49;;;;;;;5.28;3.05;;;4.80;61.90;;;;;;5094520;28;20020;-36
2021/04/16 00:17:15;;;;;;;5.82;3.47;;;4.90;61.90;;;;;;5075926;28;20068;-36
2021/04/16 00:19:41;;;;;;;6.80;3.58;;;4.90;61.60;;;;;;5097553;28;20480;-36
2021/04/16 00:22:07;;;;;;;4.72;3.17;;;4.90;61.70;;;;;;5094979;28;20020;-35
2021/04/16 00:24:32;;;;;;;5.72;3.47;;;5.00;61.40;;;;;;5094107;28;20471;-35
2021/04/16 00:26:58;;;;;;;5.07;2.95;;;5.00;61.20;;;;;;5093938;28;20052;-35
2021/04/16 00:29:23;;;;;;;4.38;2.97;;;4.90;61.40;;;;;;5093984;28;20499;-35
2021/04/16 00:31:52;;;;;;;5.07;3.17;;;5.00;61.20;;;;;;5093871;28;20039;-35
2021/04/16 00:34:22;;;;;;;6.25;3.63;;;4.90;61.50;;;;;;5095011;28;20081;-36
2021/04/16 00:36:49;;;;;;;4.53;3.13;;;4.90;61.30;;;;;;5094167;28;20024;-35
2021/04/16 00:39:18;;;;;;;3.78;2.80;;;4.80;61.60;;;;;;5093812;28;20059;-36
2021/04/16 00:41:44;;;;;;;4.55;3.33;;;4.80;61.50;;;;;;5093758;28;20069;-35
2021/04/16 00:44:10;;;;;;;5.60;3.20;;;4.80;61.80;;;;;;5094016;28;20492;-35
2021/04/16 00:46:56;;;;;;;6.95;3.15;;;4.90;61.50;;;;;;5094345;28;20027;-35
2021/04/16 00:49:27;;;;;;;5.68;3.15;;;4.80;61.70;;;;;;5093551;28;20442;-35
2021/04/16 00:51:59;;;;;;;3.83;2.50;;;4.80;61.70;;;;;;5093915;28;20036;-35
2021/04/16 00:54:37;;;;;;;7.05;3.20;;;4.80;61.80;;;;;;5093674;28;20023;-35
2021/04/16 00:57:06;;;;;;;7.82;3.80;;;4.80;61.80;;;;;;5093654;28;20492;-35
2021/04/16 00:59:35;;;;;;;6.00;3.80;;;4.80;62.10;;;;;;5093317;28;20099;-37
2021/04/16 01:18:53;;;;;;;4.88;3.00;;;4.80;62.30;;;;;;5093220;28;20061;-35
2021/04/16 01:21:22;;;;;;;5.90;3.20;;;4.80;62.50;;;;;;5092851;28;20472;-36
2021/04/16 01:23:56;;;;;;;4.90;3.08;;;4.80;62.30;;;;;;5092812;28;20057;-36
2021/04/16 01:26:27;;;;;;;4.97;3.30;;;5.00;62.20;;;;;;5092862;28;20024;-35
2021/04/16 01:28:54;;;;;;;5.10;3.50;;;4.80;62.10;;;;;;5091957;28;20040;-35
2021/04/16 01:31:22;;;;;;;3.92;2.90;;;4.90;62.00;;;;;;5097826;28;20468;-36
2021/04/16 01:33:49;;;;;;;7.28;3.85;;;4.90;62.20;;;;;;5097877;28;20031;-36
2021/04/16 01:36:30;;;;;;;5.50;3.58;;;4.90;62.30;;;;;;5097500;28;20012;-35
2021/04/16 01:38:58;;;;;;;4.65;2.97;;;4.70;63.10;;;;;;5097434;28;20057;-36
2021/04/16 01:41:26;;;;;;;7.20;3.97;;;4.70;63.20;;;;;;5097349;28;20060;-35
2021/04/16 01:44:13;;;;;;;7.07;3.13;;;4.80;63.20;;;;;;5097403;28;20036;-35
2021/04/16 01:47:12;;;;;;;5.75;3.13;;;4.90;62.60;;;;;;5097535;28;20055;-35
2021/04/16 01:49:49;;;;;;;5.15;2.88;;;4.80;63.00;;;;;;5096974;28;20044;-35
2021/04/16 01:52:27;;;;;;;4.43;3.42;;;4.70;63.60;;;;;;5097375;28;20101;-35
2021/04/16 01:54:53;;;;;;;7.40;4.30;;;4.80;63.30;;;;;;5097558;28;20016;-35
2021/04/16 01:57:32;;;;;;;6.43;3.55;;;4.80;63.80;;;;;;5097124;28;20021;-35
2021/04/16 01:59:58;;;;;;;5.72;3.05;;;4.60;64.20;;;;;;5097379;28;20039;-35
2021/04/16 02:02:30;;;;;;;5.13;3.28;;;4.70;64.00;;;;;;5097059;28;20400;-35
2021/04/16 02:04:56;;;;;;;4.07;2.88;;;4.80;63.40;;;;;;5097079;28;20031;-35
2021/04/16 02:07:23;;;;;;;5.10;3.10;;;4.70;64.10;;;;;;5096785;28;20032;-35
2021/04/16 02:09:48;;;;;;;8.27;3.22;;;4.60;64.20;;;;;;5096628;28;20043;-35
2021/04/16 02:12:17;;;;;;;7.15;3.33;;;4.80;63.70;;;;;;5096913;28;20016;-35
2021/04/16 02:14:43;;;;;;;7.80;3.70;;;4.90;63.40;;;;;;5096738;28;20024;-36
2021/04/16 02:17:17;;;;;;;5.32;2.78;;;4.60;64.50;;;;;;5096583;28;20356;-35
2021/04/16 02:19:44;;;;;;;6.40;2.45;;;4.50;65.20;;;;;;5096548;28;20016;-35
2021/04/16 02:22:13;;;;;;;6.20;3.72;;;4.60;64.80;;;;;;5096782;28;20024;-36
2021/04/16 02:24:39;;;;;;;4.53;3.10;;;4.40;65.10;;;;;;5096691;28;20408;-35
2021/04/16 02:27:05;;;;;;;5.90;3.70;;;4.50;65.30;;;;;;5094988;28;20062;-36
2021/04/16 02:29:31;;;;;;;6.95;3.58;;;4.40;65.40;;;;;;5096545;28;20479;-35
2021/04/16 02:31:57;;;;;;;5.70;3.40;;;4.50;65.40;;;;;;5096679;28;20024;-35
2021/04/16 02:34:26;;;;;;;5.82;3.35;;;4.70;65.30;;;;;;5096304;28;20111;-35
2021/04/16 02:36:55;;;;;;;7.13;3.80;;;4.80;64.60;;;;;;5096460;28;20028;-35
2021/04/16 02:39:22;;;;;;;11.20;3.72;;;4.70;65.10;;;;;;5096235;28;20020;-35
2021/04/16 02:41:48;;;;;;;5.90;3.60;;;4.60;65.30;;;;;;5096370;28;20081;-35
2021/04/16 02:44:15;;;;;;;5.93;3.22;;;4.70;65.30;;;;;;5094879;28;20102;-34
2021/04/16 02:46:41;;;;;;;7.70;3.53;;;4.70;65.20;;;;;;5096320;28;20495;-35
2021/04/16 02:49:07;;;;;;;8.75;4.05;;;4.70;65.50;;;;;;5095928;28;20048;-34
2021/04/16 02:51:33;;;;;;;5.95;3.13;;;4.90;64.70;;;;;;5096386;28;20525;-36
2021/04/16 02:53:59;;;;;;;6.57;3.70;;;4.80;65.50;;;;;;5096117;28;20073;-34
2021/04/16 02:56:26;;;;;;;4.32;3.55;;;4.60;65.60;;;;;;5095807;28;20016;-34
2021/04/16 02:58:53;;;;;;;6.72;3.85;;;4.40;66.30;;;;;;5095870;28;20463;-35
2021/04/16 03:01:19;;;;;;;6.88;3.65;;;4.40;66.90;;;;;;5095951;28;20360;-36
2021/04/16 03:03:44;;;;;;;7.70;3.65;;;4.60;66.20;;;;;;5095713;28;20054;-35
2021/04/16 03:06:10;;;;;;;5.63;3.40;;;4.50;66.30;;;;;;5095535;28;20024;-35
2021/04/16 03:08:36;;;;;;;6.97;4.10;;;4.60;66.30;;;;;;5095501;28;20020;-35
2021/04/16 03:11:04;;;;;;;6.68;3.90;;;4.50;66.60;;;;;;5095692;28;20061;-34
2021/04/16 03:13:30;;;;;;;7.00;3.88;;;4.70;66.20;;;;;;5095497;28;20020;-34
2021/04/16 03:15:56;;;;;;;7.70;3.88;;;4.70;65.50;;;;;;5095637;28;20028;-35
2021/04/16 03:18:21;;;;;;;8.50;3.38;;;4.60;66.40;;;;;;5094841;28;20298;-36
2021/04/16 03:20:47;;;;;;;6.30;3.67;;;4.70;66.20;;;;;;5095569;28;20063;-35
2021/04/16 03:23:13;;;;;;;7.93;3.83;;;4.80;65.60;;;;;;5095517;28;20024;-35
2021/04/16 03:25:39;;;;;;;6.15;3.47;;;4.80;65.20;;;;;;5095055;28;20024;-35
2021/04/16 03:28:05;;;;;;;8.38;4.10;;;4.80;65.30;;;;;;5095103;28;20024;-35
2021/04/16 03:30:32;;;;;;;6.68;3.72;;;4.80;65.60;;;;;;5095027;28;20028;-35
2021/04/16 03:32:57;;;;;;;8.50;4.45;;;4.70;65.90;;;;;;5095254;28;20024;-35
2021/04/16 03:35:23;;;;;;;6.95;3.53;;;4.60;66.50;;;;;;5095221;28;20020;-36
2021/04/16 03:37:49;;;;;;;6.03;3.72;;;4.80;65.50;;;;;;5094942;28;20443;-40
2021/04/16 03:40:21;;;;;;;8.13;3.30;;;4.80;65.70;;;;;;5094906;28;20082;-35
2021/04/16 03:42:46;;;;;;;9.20;3.97;;;4.60;66.20;;;;;;5095120;28;20032;-36
2021/04/16 03:45:14;;;;;;;10.57;4.57;;;4.60;66.50;;;;;;5095325;28;20028;-35
2021/04/16 03:47:45;;;;;;;5.63;3.63;;;4.50;66.80;;;;;;5094859;28;20548;-35
2021/04/16 03:50:13;;;;;;;5.47;3.70;;;4.70;66.20;;;;;;5095198;28;20032;-35
2021/04/16 03:52:39;;;;;;;7.57;3.88;;;4.80;66.00;;;;;;5094116;28;20027;-35
2021/04/16 03:55:06;;;;;;;5.53;4.15;;;4.80;65.80;;;;;;5094636;28;20146;-36
2021/04/16 03:57:31;;;;;;;5.50;3.63;;;4.80;65.90;;;;;;5094873;28;20046;-36
2021/04/16 03:59:57;;;;;;;6.38;4.00;;;5.00;65.30;;;;;;5095417;28;20456;-35
2021/04/16 04:02:24;;;;;;;6.35;4.18;;;4.80;65.60;;;;;;5095194;28;20368;-35
2021/04/16 04:04:50;;;;;;;5.30;3.80;;;4.90;65.50;;;;;;5093224;28;20028;-36
2021/04/16 04:07:16;;;;;;;6.68;3.97;;;4.70;66.50;;;;;;5094657;28;20050;-35
2021/04/16 04:09:42;;;;;;;8.25;4.00;;;4.70;66.80;;;;;;5093002;28;20493;-35
2021/04/16 04:12:09;;;;;;;5.80;3.60;;;4.70;66.70;;;;;;5094589;28;20098;-35
2021/04/16 04:14:34;;;;;;;5.88;4.40;;;4.60;67.40;;;;;;5094622;28;20468;-35
2021/04/16 04:17:02;;;;;;;6.85;4.78;;;4.50;67.80;;;;;;5094487;28;20024;-35
2021/04/16 04:19:30;;;;;;;5.78;4.07;;;4.50;67.90;;;;;;5094433;28;20032;-35
2021/04/16 04:21:58;;;;;;;13.32;4.70;;;4.50;68.00;;;;;;5094177;28;20028;-35
2021/04/16 04:24:24;;;;;;;6.88;3.88;;;4.60;68.20;;;;;;5094276;28;20027;-35
2021/04/16 04:26:50;;;;;;;7.57;4.47;;;4.60;68.00;;;;;;5093870;28;20031;-35
2021/04/16 04:29:19;;;;;;;9.18;5.22;;;4.80;67.10;;;;;;5093960;28;20369;-35
2021/04/16 04:31:48;;;;;;;10.55;4.93;;;4.60;67.80;;;;;;5093796;28;20034;-35
2021/04/16 04:34:20;;;;;;;6.45;4.63;;;4.50;68.10;;;;;;5094183;28;20016;-36
2021/04/16 04:36:47;;;;;;;8.40;5.40;;;4.50;68.30;;;;;;5093858;28;20024;-36
2021/04/16 04:39:13;;;;;;;11.70;4.72;;;4.40;68.70;;;;;;5094165;28;20353;-35
2021/04/16 04:41:40;;;;;;;8.38;5.57;;;4.40;68.80;;;;;;5093955;28;20030;-35
2021/04/16 04:44:06;;;;;;;9.27;4.72;;;4.50;68.60;;;;;;5093083;28;20059;-35
2021/04/16 04:46:33;;;;;;;7.70;4.72;;;4.50;68.50;;;;;;5094016;28;20038;-35
2021/04/16 04:48:58;;;;;;;12.00;5.85;;;4.60;68.30;;;;;;5093495;28;20075;-36
2021/04/16 04:51:24;;;;;;;9.55;4.82;;;4.80;67.90;;;;;;5093811;28;20072;-35
2021/04/16 04:53:49;;;;;;;9.43;5.07;;;4.80;67.50;;;;;;5093649;28;20444;-35
2021/04/16 04:56:15;;;;;;;8.63;4.45;;;4.80;67.50;;;;;;5093692;28;20125;-35
2021/04/16 04:58:41;;;;;;;7.93;5.70;;;4.70;67.80;;;;;;5093451;28;20024;-35
2021/04/16 05:01:06;;;;;;;8.32;4.82;;;4.80;67.80;;;;;;5093723;28;20427;-35
2021/04/16 05:03:32;;;;;;;8.60;4.40;;;4.80;67.60;;;;;;5091900;28;20536;-35
2021/04/16 05:05:58;;;;;;;8.15;5.10;;;5.00;67.10;;;;;;5092753;28;20134;-35
2021/04/16 05:08:23;;;;;;;5.90;3.67;;;4.80;67.50;;;;;;5093424;28;20046;-34
2021/04/16 05:10:49;;;;;;;8.52;5.43;;;4.80;67.30;;;;;;5093317;28;20110;-36
2021/04/16 05:13:14;;;;;;;9.43;5.57;;;4.90;67.30;;;;;;5093631;28;20024;-35
2021/04/16 05:15:40;;;;;;;5.97;4.75;;;4.90;67.20;;;;;;5093509;28;20020;-34
2021/04/16 05:18:06;;;;;;;8.55;5.13;;;4.90;67.30;;;;;;5093215;28;20028;-36
2021/04/16 05:20:31;;;;;;;14.50;4.80;;;4.90;67.30;;;;;;5093084;28;20024;-35
2021/04/16 05:22:57;;;;;;;6.28;4.43;;;4.70;68.20;;;;;;5093780;28;20414;-35
2021/04/16 05:25:23;;;;;;;8.10;4.75;;;4.80;68.20;;;;;;5092952;28;20539;-35
2021/04/16 05:27:48;;;;;;;10.98;5.65;;;4.80;67.70;;;;;;5093234;28;20327;-36
2021/04/16 05:30:15;;;;;;;8.98;5.78;;;4.80;67.90;;;;;;5093100;28;20480;-36
2021/04/16 05:32:41;;;;;;;14.18;5.68;;;4.80;68.10;;;;;;5092832;28;20095;-36
2021/04/16 05:35:08;;;;;;;12.98;5.60;;;4.80;68.20;;;;;;5092672;28;20055;-35
2021/04/16 05:37:34;;;;;;;7.43;5.38;;;4.60;68.90;;;;;;5092227;28;20104;-35
2021/04/16 05:39:59;;;;;;;19.30;6.25;;;4.80;68.00;;;;;;5092831;28;20059;-35
2021/04/16 05:42:25;;;;;;;10.38;5.05;;;4.90;67.70;;;;;;5093054;28;20512;-35
2021/04/16 05:44:51;;;;;;;7.68;4.80;;;5.00;67.30;;;;;;5091384;28;20062;-35
2021/04/16 05:47:17;;;;;;;7.75;5.32;;;4.90;67.60;;;;;;5093119;28;20024;-36
2021/04/16 05:49:42;;;;;;;12.55;5.18;;;4.90;67.50;;;;;;5093529;28;20032;-36
2021/04/16 05:52:09;;;;;;;11.82;6.40;;;5.00;67.20;;;;;;5093435;28;20025;-35
2021/04/16 05:54:34;;;;;;;5.65;4.35;;;5.20;66.60;;;;;;5093164;28;20141;-36
2021/04/16 05:57:00;;;;;;;11.85;5.00;;;5.30;65.90;;;;;;5092732;28;20048;-34
2021/04/16 05:59:25;;;;;;;7.10;4.45;;;5.30;66.00;;;;;;5091112;28;20549;-35
2021/04/16 06:01:51;;;;;;;10.60;5.15;;;5.30;65.80;;;;;;5092517;28;20034;-35
2021/04/16 06:04:23;;;;;;;7.55;4.22;;;5.40;65.40;;;;;;5092735;28;20424;-35
2021/04/16 06:06:48;;;;;;;7.97;5.18;;;5.40;65.40;;;;;;5092536;28;20023;-36
2021/04/16 06:09:15;;;;;;;7.40;4.63;;;5.40;65.50;;;;;;5092224;28;20380;-36
2021/04/16 06:11:40;;;;;;;5.97;4.35;;;5.50;65.40;;;;;;5091829;28;20070;-35
2021/04/16 06:14:06;;;;;;;6.07;3.97;;;5.50;64.80;;;;;;5092704;28;20028;-35
2021/04/16 06:16:32;;;;;;;9.82;4.30;;;5.60;64.50;;;;;;5094715;28;20059;-35
2021/04/16 06:18:58;;;;;;;6.63;4.25;;;5.80;64.00;;;;;;5096424;28;20337;-36
2021/04/16 06:21:24;;;;;;;7.85;4.88;;;5.80;64.40;;;;;;5095593;28;20085;-35
2021/04/16 06:23:50;;;;;;;9.68;4.72;;;6.00;63.20;;;;;;5094753;28;20024;-36
2021/04/16 06:26:16;;;;;;;8.10;4.78;;;5.90;63.30;;;;;;5096380;28;20081;-35
2021/04/16 06:28:42;;;;;;;6.88;5.05;;;6.00;62.90;;;;;;5095965;28;20028;-35
2021/04/16 06:31:18;;;;;;;4.97;4.15;;;6.00;62.90;;;;;;5096523;28;20382;-37
2021/04/16 06:33:44;;;;;;;7.00;4.28;;;6.00;62.70;;;;;;5096763;28;20376;-35
2021/04/16 06:36:15;;;;;;;9.68;4.72;;;6.00;62.70;;;;;;5095855;28;20048;-35
2021/04/16 06:38:43;;;;;;;9.98;5.32;;;6.00;62.60;;;;;;5096223;28;20404;-35
2021/04/16 06:41:18;;;;;;;12.13;5.35;;;6.10;63.00;;;;;;5095967;28;20031;-35
2021/04/16 06:43:48;;;;;;;11.38;4.68;;;6.20;61.90;;;;;;5096391;28;20031;-35
2021/04/16 06:46:27;;;;;;;7.83;4.13;;;6.30;61.40;;;;;;5095821;28;20044;-36
2021/04/16 06:48:56;;;;;;;7.95;4.00;;;6.30;61.10;;;;;;5095466;28;20036;-35
2021/04/16 06:51:22;;;;;;;7.10;4.75;;;6.30;60.70;;;;;;5095398;28;20039;-35
2021/04/16 06:53:57;;;;;;;10.15;4.28;;;6.30;60.70;;;;;;5095657;28;20024;-36
2021/04/16 06:56:33;;;;;;;12.40;4.82;;;6.50;59.70;;;;;;5095782;28;20361;-35
2021/04/16 06:59:13;;;;;;;6.32;4.50;;;6.50;59.00;;;;;;5095374;28;20024;-36
2021/04/16 07:01:42;;;;;;;6.03;3.47;;;6.40;59.10;;;;;;5095837;28;20452;-35
2021/04/16 07:04:27;;;;;;;7.28;4.28;;;6.70;58.20;;;;;;5094939;28;20061;-36
2021/04/16 07:06:59;;;;;;;6.72;3.90;;;6.70;58.30;;;;;;5095298;28;20024;-36
2021/04/16 07:09:34;;;;;;;6.72;3.47;;;6.90;57.50;;;;;;5095093;28;20438;-38
2021/04/16 07:12:09;;;;;;;7.65;3.53;;;7.20;56.20;;;;;;5094666;28;20032;-36
2021/04/16 07:14:42;;;;;;;9.80;4.03;;;7.30;54.90;;;;;;5094717;28;20059;-36
2021/04/16 07:17:16;;;;;;;8.82;4.78;;;7.30;55.00;;;;;;5093778;28;20020;-36
2021/04/16 07:19:42;;;;;;;6.72;3.92;;;7.40;53.60;;;;;;5094947;28;20012;-35
2021/04/16 07:22:23;;;;;;;5.13;3.80;;;7.80;54.00;;;;;;5095125;28;20039;-37
2021/04/16 07:24:51;;;;;;;5.75;3.45;;;7.80;53.80;;;;;;5095131;28;20021;-36
2021/04/16 07:27:20;;;;;;;5.10;3.38;;;7.80;53.20;;;;;;5092290;28;20056;-36
2021/04/16 07:29:54;;;;;;;8.48;4.57;;;7.80;52.90;;;;;;5094403;28;20046;-35
2021/04/16 07:32:29;;;;;;;10.82;3.45;;;7.90;52.90;;;;;;5094628;28;20032;-35
2021/04/16 07:34:58;;;;;;;10.75;4.72;;;8.10;50.90;;;;;;5094584;28;20073;-36
2021/04/16 07:37:40;;;;;;;4.20;2.90;;;7.90;51.20;;;;;;5094678;28;20024;-36
2021/04/16 07:40:14;;;;;;;5.25;3.17;;;8.00;51.00;;;;;;5094131;28;20044;-35
2021/04/16 07:42:46;;;;;;;4.75;2.63;;;8.00;49.40;;;;;;5093335;28;20032;-35
2021/04/16 07:45:25;;;;;;;6.38;3.08;;;8.30;49.10;;;;;;5093414;28;20107;-35
2021/04/16 07:48:20;;;;;;;6.30;3.38;;;8.30;48.00;;;;;;5094199;28;20458;-35
2021/04/16 07:50:47;;;;;;;6.32;3.47;;;8.20;49.50;;;;;;5093942;28;20040;-36
2021/04/16 07:53:28;;;;;;;8.07;3.42;;;8.30;49.90;;;;;;5092949;28;20115;-37
2021/04/16 07:56:12;;;;;;;4.70;3.58;;;8.70;48.90;;;;;;5094474;28;20024;-36
2021/04/16 07:58:39;;;;;;;10.25;2.88;;;8.50;47.70;;;;;;5093047;28;20047;-36
2021/04/16 08:01:17;;;;;;;5.30;3.17;;;8.70;47.50;;;;;;5093575;28;20020;-36
2021/04/16 08:03:49;;;;;;;4.85;2.70;;;9.10;47.00;;;;;;5093738;28;20028;-37
2021/04/16 08:06:53;;;;;;;6.20;2.67;;;9.20;45.40;;;;;;5094216;28;20035;-35
2021/04/16 08:09:25;;;;;;;7.53;2.15;;;9.50;43.70;;;;;;5093778;28;20108;-35
2021/04/16 08:11:52;;;;;;;5.10;2.30;;;9.80;41.70;;;;;;5093719;28;20035;-35
2021/04/16 08:14:42;;;;;;;3.72;2.63;;;9.70;42.50;;;;;;5093988;28;20376;-37
2021/04/16 08:17:29;;;;;;;5.53;2.15;;;10.00;41.30;;;;;;5076680;28;20028;-36
2021/04/16 08:20:30;;;;;;;2.28;1.90;;;9.90;41.40;;;;;;5094198;28;20495;-36
2021/04/16 08:22:57;;;;;;;3.70;2.25;;;10.00;40.70;;;;;;5093825;28;20036;-36
2021/04/16 08:25:34;;;;;;;8.68;2.45;;;10.20;39.80;;;;;;5094001;28;20137;-36
2021/04/16 08:28:07;;;;;;;7.18;3.22;;;10.20;40.40;;;;;;5093274;28;20030;-36
2021/04/16 08:30:58;;;;;;;3.17;2.55;;;10.10;39.80;;;;;;5093397;28;20024;-35
2021/04/16 08:33:30;;;;;;;;;;;9.90;40.10;;;;;;5093979;28;20411;-35
2021/04/16 08:36:01;;;;;;;3.42;1.83;;;10.30;39.20;;;;;;5093917;28;19911;-35
2021/04/16 08:38:31;;;;;;;2.17;1.40;;;10.10;39.30;;;;;;5093305;28;20099;-36
2021/04/16 08:41:00;;;;;;;5.80;1.50;;;9.80;38.80;;;;;;5093694;28;20085;-35
2021/04/16 08:43:31;;;;;;;2.80;1.58;;;9.90;38.30;;;;;;5093325;28;20412;-36
2021/04/16 08:45:58;;;;;;;2.90;1.45;;;9.70;38.80;;;;;;5092265;28;20035;-36
2021/04/16 08:48:32;;;;;;;1.42;1.25;;;9.30;39.40;;;;;;5092985;28;20085;-36
2021/04/16 08:51:03;;;;;;;2.88;1.83;;;9.30;39.10;;;;;;5092626;28;20040;-36
2021/04/16 08:53:30;;;;;;;2.47;1.38;;;9.30;39.10;;;;;;5093094;28;20024;-35
2021/04/16 08:55:59;;;;;;;1.80;1.30;;;9.40;38.70;;;;;;5092717;28;20027;-38
2021/04/16 08:58:34;;;;;;;1.77;1.08;;;9.40;38.10;;;;;;5093460;28;20028;-37
2021/04/16 09:01:09;;;;;;;2.30;1.83;;;9.40;38.10;;;;;;5093397;28;20020;-37
2021/04/16 09:03:49;;;;;;;3.17;1.70;;;9.60;37.70;;;;;;5093708;28;20425;-38
2021/04/16 09:06:26;;;;;;;1.67;1.30;;;9.40;38.60;;;;;;5092898;28;20035;-37
2021/04/16 09:08:54;;;;;;;2.83;1.38;;;9.60;38.70;;;;;;5093365;28;20400;-37
2021/04/16 09:11:45;;;;;;;1.42;1.30;;;10.20;37.30;;;;;;5093968;28;20028;-38
2021/04/16 09:14:34;;;;;;;9.48;1.52;;;10.40;36.90;;;;;;5093230;28;20095;-36
2021/04/16 09:17:06;;;;;;;1.92;1.45;;;10.60;35.40;;;;;;5092969;28;20024;-37
2021/04/16 09:19:33;;;;;;;3.80;0.98;;;10.10;35.90;;;;;;5092807;28;20376;-35
2021/04/16 09:22:05;;;;;;;2.50;0.98;;;10.20;35.30;;;;;;5091271;28;20109;-36
2021/04/16 09:24:56;;;;;;;4.28;1.35;;;10.50;35.50;;;;;;5091176;28;20028;-36
2021/04/16 09:27:25;;;;;;;2.88;1.63;;;10.80;35.10;;;;;;5092615;28;20024;-36
2021/04/16 09:30:06;;;;;;;2.65;0.90;;;10.90;34.90;;;;;;5092782;28;20031;-36
2021/04/16 09:32:32;;;;;;;1.15;1.00;;;10.90;34.70;;;;;;5092786;28;20054;-37
2021/04/16 09:35:00;;;;;;;3.17;1.33;;;10.30;36.00;;;;;;5092470;28;20020;-43
2021/04/16 09:37:30;;;;;;;3.05;1.55;;;10.40;34.70;;;;;;5092255;28;20096;-37
2021/04/16 09:40:14;;;;;;;6.05;2.75;;;10.70;35.50;;;;;;5092135;28;20016;-37
2021/04/16 09:42:42;;;;;;;3.75;1.92;;;11.10;36.00;;;;;;5092296;28;20024;-35
2021/04/16 09:45:30;;;;;;;6.00;1.83;;;11.70;35.00;;;;;;5092044;28;20024;-35
2021/04/16 09:48:16;;;;;;;3.00;1.77;;;11.40;35.50;;;;;;5089664;28;20074;-36
2021/04/16 09:50:45;;;;;;;2.90;2.03;;;11.90;34.00;;;;;;5092049;28;20057;-37
2021/04/16 09:53:21;;;;;;;2.92;1.73;;;11.80;34.10;;;;;;5094603;28;20107;-36
2021/04/16 09:56:08;;;;;;;4.45;2.45;;;12.10;33.70;;;;;;5096090;28;20070;-35
2021/04/16 09:58:35;;;;;;;2.30;1.45;;;11.50;34.80;;;;;;5096216;28;20116;-35
2021/04/16 10:01:11;;;;;;;1.63;1.50;;;11.10;35.60;;;;;;5095933;28;20115;-35
2021/04/16 10:04:07;;;;;;;3.72;2.08;;;10.50;37.50;;;;;;5096053;28;20032;-38
2021/04/16 10:06:37;;;;;;;3.58;1.70;;;11.10;37.20;;;;;;5096748;28;20107;-37
2021/04/16 10:09:24;;;;;;;2.03;1.25;;;11.50;35.80;;;;;;5094697;28;20047;-37
2021/04/16 10:11:52;;;;;;;8.38;3.22;;;11.80;35.40;;;;;;5095510;28;20060;-35
2021/04/16 10:14:31;;;;;;;2.00;1.80;;;11.70;35.00;;;;;;5094698;28;20115;-36
2021/04/16 10:17:11;;;;;;;2.25;1.88;;;11.60;35.90;;;;;;5096251;28;20100;-35
2021/04/16 10:19:43;;;;;;;5.53;1.40;;;12.80;33.10;;;;;;5095887;28;20489;-36
2021/04/16 10:22:19;;;;;;;3.50;2.30;;;13.80;31.40;;;;;;5095997;28;20024;-36
2021/04/16 10:34:31;;;;;;;3.97;1.83;;;13.40;32.60;;;;;;5095998;28;20027;-35
2021/04/16 11:06:52;;;;;;;4.97;2.13;;;14.20;29.20;;;;;;5093376;28;20093;-37
2021/04/16 11:56:45;;;;;;;2.40;1.77;;;13.80;30.30;;;;;;5094905;28;20035;-35
2021/04/16 12:41:20;;;;;;;4.88;2.00;;;14.10;29.70;;;;;;5093940;28;20034;-39
2021/04/16 12:43:47;;;;;;;3.17;1.52;;;14.40;29.00;;;;;;5077015;28;20024;-35
2021/04/16 12:46:17;;;;;;;2.55;1.67;;;14.30;29.70;;;;;;5092462;28;20031;-37
2021/04/16 12:48:43;;;;;;;2.85;1.92;;;14.20;29.50;;;;;;5093906;28;20411;-37
2021/04/16 12:51:14;;;;;;;2.13;1.50;;;13.40;30.60;;;;;;5093532;28;20399;-39
2021/04/16 12:53:40;;;;;;;5.30;2.10;;;13.40;31.00;;;;;;5093485;28;20456;-37
2021/04/16 12:56:09;;;;;;;2.30;1.55;;;13.60;31.00;;;;;;5091805;28;20024;-36
2021/04/16 12:58:40;;;;;;;2.80;1.70;;;13.90;29.90;;;;;;5094202;28;20478;-38
2021/04/16 13:01:10;;;;;;;2.38;1.60;;;13.80;29.90;;;;;;5093702;28;20426;-36
2021/04/16 13:03:41;;;;;;;1.92;1.48;;;14.10;29.80;;;;;;5093589;28;20107;-36
2021/04/16 13:06:32;;;;;;;2.97;2.10;;;14.60;29.40;;;;;;5093176;28;20036;-38
2021/04/16 13:08:58;;;;;;;1.60;1.30;;;15.10;28.20;;;;;;5092606;28;20119;-37
2021/04/16 13:11:24;;;;;;;4.70;1.75;;;14.10;29.70;;;;;;5093099;28;20054;-37
2021/04/16 13:13:51;;;;;;;2.47;2.13;;;13.60;30.10;;;;;;5091905;28;20020;-35
2021/04/16 13:16:17;;;;;;;2.70;1.52;;;13.50;30.10;;;;;;5093866;28;20024;-36
2021/04/16 13:18:46;;;;;;;2.20;1.70;;;13.80;29.60;;;;;;5091313;28;20111;-36
2021/04/16 13:21:17;;;;;;;3.22;2.10;;;13.80;30.10;;;;;;5092805;28;20466;-36
2021/04/16 13:23:43;;;;;;;4.03;1.85;;;13.90;30.40;;;;;;5091809;28;20051;-36
2021/04/16 13:26:09;;;;;;;2.17;1.90;;;13.90;30.20;;;;;;5092223;28;20058;-36
2021/04/16 13:28:36;;;;;;;4.30;1.90;;;13.80;31.00;;;;;;5093927;28;20077;-35
2021/04/16 13:31:02;;;;;;;3.53;1.80;;;13.30;31.40;;;;;;5094335;28;20024;-35
2021/04/16 13:33:30;;;;;;;3.70;1.90;;;13.30;31.70;;;;;;5093662;28;20027;-37
2021/04/16 13:36:00;;;;;;;5.72;2.00;;;12.80;32.00;;;;;;5092197;28;20023;-38
2021/04/16 13:38:29;;;;;;;5.07;2.10;;;12.90;32.10;;;;;;5093229;28;20023;-37
2021/04/16 13:40:57;;;;;;;2.38;1.85;;;12.80;32.00;;;;;;5093962;28;20044;-36
2021/04/16 13:43:23;;;;;;;3.08;1.90;;;12.80;31.50;;;;;;5093022;28;20024;-36
2021/04/16 13:45:50;;;;;;;3.75;2.00;;;13.20;31.30;;;;;;5093067;28;20024;-36
2021/04/16 13:48:18;;;;;;;2.50;1.95;;;13.30;30.70;;;;;;5092543;28;20044;-36
2021/04/16 13:50:45;;;;;;;1.77;1.60;;;13.30;31.20;;;;;;5091841;28;20480;-38
2021/04/16 13:53:12;;;;;;;2.42;1.98;;;14.00;30.50;;;;;;5093317;28;20420;-37
2021/04/16 13:55:39;;;;;;;4.88;2.20;;;13.70;31.20;;;;;;5092793;28;20032;-37
2021/04/16 13:58:05;;;;;;;2.50;1.60;;;13.10;31.50;;;;;;5093192;28;20020;-35
2021/04/16 14:00:34;;;;;;;6.47;2.30;;;12.80;31.40;;;;;;5092568;28;20535;-37
2021/04/16 14:03:19;;;;;;;3.75;1.45;;;12.80;31.80;;;;;;5092590;28;20028;-38
2021/04/16 14:05:50;;;;;;;4.57;2.65;;;12.90;30.50;;;;;;5092612;28;20034;-36
2021/04/16 14:08:44;;;;;;;4.85;2.00;;;12.80;30.90;;;;;;5091550;28;20024;-36
2021/04/16 14:11:10;;;;;;;4.00;2.20;;;12.90;31.00;;;;;;5092400;28;20040;-36
2021/04/16 14:13:36;;;;;;;2.22;1.90;;;13.30;30.40;;;;;;5090839;28;20032;-36
2021/04/16 14:16:11;;;;;;;6.88;1.65;;;13.00;31.20;;;;;;5092157;28;20027;-36
2021/04/16 14:18:39;;;;;;;2.03;1.58;;;13.10;31.10;;;;;;5092343;28;20376;-35
2021/04/16 14:21:07;;;;;;;1.88;1.30;;;13.50;30.60;;;;;;5092364;28;20031;-36
2021/04/16 14:23:33;;;;;;;2.15;1.67;;;13.30;29.80;;;;;;5095957;28;20035;-37
2021/04/16 14:25:59;;;;;;;1.88;1.33;;;13.30;30.20;;;;;;5092602;28;20024;-36
2021/04/16 14:28:26;;;;;;;3.45;1.63;;;13.40;30.10;;;;;;5092905;28;20024;-39
2021/04/16 14:30:55;;;;;;;2.60;1.70;;;13.80;29.50;;;;;;5090721;28;20109;-37
2021/04/16 14:33:29;;;;;;;5.70;1.95;;;13.70;30.00;;;;;;5092615;28;20024;-38
2021/04/16 14:35:55;;;;;;;2.15;1.95;;;13.40;30.30;;;;;;5091188;28;20069;-36
2021/04/16 14:38:22;;;;;;;3.20;1.70;;;14.00;29.80;;;;;;5095484;28;20024;-36
2021/04/16 14:40:48;;;;;;;3.50;1.60;;;14.40;29.20;;;;;;5094888;28;20031;-37
2021/04/16 14:43:14;;;;;;;2.70;1.80;;;14.10;30.00;;;;;;5096155;28;20031;-37
2021/04/16 14:45:46;;;;;;;3.50;2.00;;;13.90;30.80;;;;;;5096164;28;20024;-35
2021/04/16 14:48:12;;;;;;;2.25;1.63;;;13.90;30.80;;;;;;5096050;28;20052;-37
2021/04/16 14:50:39;;;;;;;3.30;1.50;;;13.70;31.40;;;;;;5096298;28;20035;-36
2021/04/16 14:53:11;;;;;;;5.30;2.63;;;13.30;31.90;;;;;;5094259;28;20055;-36
2021/04/16 14:55:37;;;;;;;5.03;3.13;;;13.30;32.10;;;;;;5095668;28;20531;-36
2021/04/16 14:58:05;;;;;;;2.65;2.20;;;13.30;32.20;;;;;;5094297;28;20044;-36
2021/04/16 15:00:35;;;;;;;7.43;2.08;;;13.30;31.80;;;;;;5095150;28;20039;-36
2021/04/16 15:03:03;;;;;;;2.22;1.95;;;13.40;31.70;;;;;;5095553;28;20514;-37
2021/04/16 15:05:30;;;;;;;3.60;2.03;;;13.60;31.50;;;;;;5095245;28;20476;-36
2021/04/16 15:08:03;;;;;;;3.58;2.25;;;13.60;31.60;;;;;;5095170;28;20117;-37
2021/04/16 15:10:38;;;;;;;2.13;1.85;;;13.40;31.80;;;;;;5094266;28;20058;-36
2021/04/16 15:13:06;;;;;;;5.75;2.20;;;13.30;30.60;;;;;;5094243;28;20091;-36
2021/04/16 15:15:43;;;;;;;4.28;2.20;;;13.30;31.00;;;;;;5093274;28;20021;-36
2021/04/16 15:18:16;;;;;;;2.47;2.00;;;13.40;30.80;;;;;;5093885;28;20027;-36
2021/04/16 15:20:43;;;;;;;3.22;1.67;;;13.40;31.80;;;;;;5093445;28;20050;-36
2021/04/16 15:23:14;;;;;;;2.42;1.90;;;13.30;32.30;;;;;;5094796;28;20111;-37
2021/04/16 15:25:41;;;;;;;2.97;1.90;;;13.60;32.50;;;;;;5077272;28;20056;-37
2021/04/16 15:28:31;;;;;;;2.58;1.63;;;13.80;32.00;;;;;;5095279;28;20024;-36
2021/04/16 15:31:16;;;;;;;7.75;2.28;;;13.70;32.20;;;;;;5094126;28;20523;-36
2021/04/16 15:48:10;;;;;;;3.55;1.98;;;13.70;32.80;;;;;;5093754;28;20068;-37